Time;durP1;ratioP1;P1;durP2;ratioP2;P2;SDS_P1;SDS_P2;PMS_P1;PMS_P2;Temp;Humidity;BMP_temperature;BMP_pressure;BME280_temperature;BME280_humidity;BME280_pressure;Samples;Min_cycle;Max_cycle;Signal;HPM_P1;HPM_P2
2022/11/07 00:01:19;;;;;;;4.43;2.10;;;16.00;55.30;;;;;;5093381;28;20449;-53
2022/11/07 00:03:44;;;;;;;2.53;1.60;;;15.90;55.80;;;;;;5089755;28;20586;-53
2022/11/07 00:06:10;;;;;;;4.60;2.37;;;15.80;56.00;;;;;;5089170;28;21070;-52
2022/11/07 00:08:36;;;;;;;3.63;2.67;;;15.80;56.00;;;;;;5084648;28;20240;-53
2022/11/07 00:11:03;;;;;;;2.27;1.83;;;15.90;56.30;;;;;;5091532;28;20433;-52
2022/11/07 00:13:29;;;;;;;2.03;1.93;;;15.90;56.30;;;;;;5090258;28;20209;-50
2022/11/07 00:15:59;;;;;;;3.93;1.60;;;15.90;56.40;;;;;;5085272;28;20446;-53
2022/11/07 00:18:24;;;;;;;1.77;1.67;;;15.90;56.70;;;;;;5090302;28;20571;-50
2022/11/07 00:20:50;;;;;;;2.30;1.30;;;15.80;56.80;;;;;;5087154;28;20446;-53
2022/11/07 00:23:16;;;;;;;1.70;1.60;;;15.70;57.00;;;;;;5088300;28;20200;-53
2022/11/07 00:25:41;;;;;;;2.30;1.67;;;15.60;57.60;;;;;;5080270;28;20234;-53
2022/11/07 00:28:07;;;;;;;1.47;1.33;;;15.60;57.80;;;;;;5086931;28;20187;-51
2022/11/07 00:30:32;;;;;;;1.60;1.50;;;15.60;58.20;;;;;;5086793;28;20195;-50
2022/11/07 00:32:58;;;;;;;1.63;1.43;;;15.50;58.40;;;;;;5086909;28;20264;-53
2022/11/07 00:35:23;;;;;;;1.70;1.60;;;15.60;58.40;;;;;;5088935;28;20242;-53
2022/11/07 00:37:49;;;;;;;3.63;1.50;;;15.60;58.40;;;;;;5089683;28;20199;-50
2022/11/07 00:40:15;;;;;;;1.57;1.30;;;15.70;58.20;;;;;;5089975;28;20882;-52
2022/11/07 00:42:40;;;;;;;1.70;1.60;;;15.60;58.60;;;;;;5087435;28;20203;-53
2022/11/07 00:45:07;;;;;;;1.53;1.43;;;15.60;58.70;;;;;;5090221;28;20479;-49
2022/11/07 00:47:32;;;;;;;1.70;1.60;;;15.60;58.80;;;;;;5090260;28;20360;-52
2022/11/07 00:49:58;;;;;;;1.80;1.70;;;15.60;59.10;;;;;;5087708;28;21004;-50
2022/11/07 00:52:23;;;;;;;1.37;1.27;;;15.60;59.10;;;;;;5090366;28;20649;-53
2022/11/07 00:54:49;;;;;;;1.27;1.13;;;15.60;59.30;;;;;;5090513;28;20279;-52
2022/11/07 00:57:15;;;;;;;1.50;1.23;;;15.50;59.80;;;;;;5092009;28;20187;-52
2022/11/07 00:59:40;;;;;;;1.70;1.60;;;15.50;60.30;;;;;;5089613;28;20199;-51
2022/11/07 01:02:06;;;;;;;1.73;1.40;;;15.50;60.20;;;;;;5088291;28;20437;-50
2022/11/07 01:07:16;;;;;;;1.13;1.03;;;15.60;60.70;;;;;;5090375;28;20307;-50
2022/11/07 01:09:42;;;;;;;1.00;1.00;;;15.50;61.20;;;;;;5089373;28;20434;-52
2022/11/07 01:12:07;;;;;;;1.30;1.20;;;15.40;61.50;;;;;;5090445;28;20199;-54
2022/11/07 01:14:33;;;;;;;1.73;1.23;;;15.40;62.10;;;;;;5091135;28;20777;-50
2022/11/07 01:16:58;;;;;;;1.33;1.23;;;15.60;61.70;;;;;;5088770;28;20255;-51
2022/11/07 01:19:24;;;;;;;1.70;1.50;;;15.60;61.70;;;;;;5088622;28;20198;-50
2022/11/07 01:21:50;;;;;;;1.40;1.30;;;15.50;62.40;;;;;;5088513;28;20220;-50
2022/11/07 01:24:17;;;;;;;1.50;1.40;;;15.50;62.00;;;;;;5088023;28;20234;-52
2022/11/07 01:26:46;;;;;;;1.40;1.30;;;15.60;61.80;;;;;;5088965;28;20967;-50
2022/11/07 01:29:15;;;;;;;1.30;1.20;;;15.70;61.30;;;;;;5086007;28;20577;-52
2022/11/07 01:31:41;;;;;;;1.67;1.50;;;15.60;61.30;;;;;;5089789;28;20445;-49
2022/11/07 01:34:07;;;;;;;2.80;2.00;;;15.50;61.70;;;;;;5086719;28;20946;-52
2022/11/07 01:36:32;;;;;;;2.13;1.70;;;15.40;62.30;;;;;;5084046;28;20212;-52
2022/11/07 01:38:58;;;;;;;1.57;1.47;;;15.40;61.90;;;;;;5095956;28;20213;-52
2022/11/07 01:41:31;;;;;;;1.83;1.13;;;15.40;61.90;;;;;;5095250;28;20199;-51
2022/11/07 01:44:03;;;;;;;2.00;1.70;;;15.50;61.60;;;;;;5086181;28;20635;-53
2022/11/07 01:46:30;;;;;;;1.70;1.60;;;15.50;61.70;;;;;;5084939;28;20491;-54
2022/11/07 01:49:12;;;;;;;1.50;1.40;;;15.40;61.80;;;;;;5090377;28;20460;-50
2022/11/07 01:51:54;;;;;;;2.97;1.60;;;15.50;61.60;;;;;;5087844;28;20572;-49
2022/11/07 01:54:25;;;;;;;1.50;1.40;;;15.40;61.80;;;;;;5087497;28;20437;-53
2022/11/07 01:56:52;;;;;;;1.47;1.37;;;15.30;62.30;;;;;;5091646;28;20458;-49
2022/11/07 01:59:24;;;;;;;2.20;1.60;;;15.10;62.90;;;;;;5086487;28;20467;-53
2022/11/07 02:01:50;;;;;;;1.70;1.53;;;15.10;63.30;;;;;;5086174;28;20514;-52
2022/11/07 02:04:19;;;;;;;1.50;1.40;;;15.30;62.90;;;;;;5090018;28;20526;-53
2022/11/07 02:06:46;;;;;;;1.73;1.60;;;15.40;62.50;;;;;;5090409;28;20315;-52
2022/11/07 02:09:13;;;;;;;1.67;1.57;;;15.50;62.20;;;;;;5086419;28;20436;-50
2022/11/07 02:11:39;;;;;;;3.87;1.67;;;15.40;62.40;;;;;;5097111;28;20440;-52
2022/11/07 02:14:05;;;;;;;1.63;1.53;;;15.30;62.90;;;;;;5085947;28;20528;-50
2022/11/07 02:16:34;;;;;;;2.10;1.50;;;15.40;62.70;;;;;;5089697;28;20578;-53
2022/11/07 02:19:00;;;;;;;1.87;1.77;;;15.50;62.10;;;;;;5084390;28;20199;-52
2022/11/07 02:21:39;;;;;;;1.43;1.33;;;15.60;62.00;;;;;;5098872;28;20436;-53
2022/11/07 02:24:12;;;;;;;1.73;1.57;;;15.60;62.20;;;;;;5089967;28;20532;-53
2022/11/07 02:26:39;;;;;;;1.60;1.50;;;15.60;62.00;;;;;;5094328;28;20480;-53
2022/11/07 02:29:08;;;;;;;3.53;1.77;;;15.40;62.50;;;;;;5092689;28;20441;-53
2022/11/07 02:31:33;;;;;;;1.43;1.33;;;15.30;63.10;;;;;;5092144;28;20444;-54
2022/11/07 02:33:59;;;;;;;1.50;1.40;;;15.20;63.20;;;;;;5081950;28;20777;-53
2022/11/07 02:36:25;;;;;;;3.80;1.77;;;15.30;63.40;;;;;;5091173;28;20537;-53
2022/11/07 02:38:56;;;;;;;2.93;1.20;;;15.20;63.50;;;;;;5087900;28;20616;-54
2022/11/07 02:41:25;;;;;;;1.10;1.00;;;15.20;63.50;;;;;;5090259;28;20195;-52
2022/11/07 02:43:55;;;;;;;2.53;2.20;;;15.30;63.30;;;;;;5090818;28;20462;-54
2022/11/07 02:46:21;;;;;;;2.03;1.50;;;15.30;63.20;;;;;;5092696;28;20492;-54
2022/11/07 02:48:53;;;;;;;2.47;1.50;;;15.30;63.20;;;;;;5091652;28;20441;-52
2022/11/07 02:51:19;;;;;;;1.37;1.27;;;15.30;63.50;;;;;;5088106;28;20456;-53
2022/11/07 02:53:45;;;;;;;2.30;1.43;;;15.20;63.60;;;;;;5090220;28;20605;-51
2022/11/07 02:56:11;;;;;;;1.67;1.50;;;15.20;63.50;;;;;;5091858;28;20183;-53
2022/11/07 02:58:37;;;;;;;1.30;1.20;;;15.30;63.40;;;;;;5090828;28;20438;-52
2022/11/07 03:01:05;;;;;;;2.70;1.50;;;15.20;63.60;;;;;;5091912;28;20908;-51
2022/11/07 03:03:37;;;;;;;1.50;1.40;;;15.20;63.90;;;;;;5090179;28;20681;-52
2022/11/07 03:06:04;;;;;;;1.90;1.40;;;15.20;63.80;;;;;;5092512;28;21034;-53
2022/11/07 03:08:30;;;;;;;2.33;1.30;;;15.00;64.40;;;;;;5087852;28;20433;-53
2022/11/07 03:10:56;;;;;;;4.83;1.50;;;15.00;64.40;;;;;;5091284;28;20437;-52
2022/11/07 03:13:21;;;;;;;1.97;1.63;;;15.00;64.60;;;;;;5092112;28;20193;-53
2022/11/07 03:15:47;;;;;;;3.10;1.53;;;15.00;64.70;;;;;;5092186;28;20195;-53
2022/11/07 03:18:13;;;;;;;1.30;1.20;;;15.00;64.50;;;;;;5093557;28;20579;-53
2022/11/07 03:20:39;;;;;;;3.20;1.60;;;14.90;64.70;;;;;;5093522;28;20199;-52
2022/11/07 03:23:04;;;;;;;1.90;1.70;;;15.00;64.50;;;;;;5087156;28;20195;-53
2022/11/07 03:25:30;;;;;;;2.70;1.50;;;15.00;64.20;;;;;;5087789;28;20631;-52
2022/11/07 03:27:55;;;;;;;2.00;1.50;;;14.80;65.00;;;;;;5090706;28;20203;-53
2022/11/07 03:30:21;;;;;;;4.07;1.80;;;14.70;65.00;;;;;;5085830;28;20187;-50
2022/11/07 03:32:46;;;;;;;1.43;1.20;;;14.90;65.10;;;;;;5088997;28;20195;-52
2022/11/07 03:35:12;;;;;;;1.50;1.40;;;15.10;64.40;;;;;;5086536;28;20202;-53
2022/11/07 03:37:38;;;;;;;1.53;1.43;;;15.20;63.90;;;;;;5091123;28;20201;-53
2022/11/07 03:40:04;;;;;;;2.17;1.30;;;15.10;63.80;;;;;;5086276;28;20753;-55
2022/11/07 03:42:29;;;;;;;1.67;1.50;;;15.20;63.70;;;;;;5089815;28;20562;-50
2022/11/07 03:44:55;;;;;;;2.23;1.50;;;15.20;63.70;;;;;;5085131;28;20444;-53
2022/11/07 03:47:20;;;;;;;3.23;1.27;;;15.10;63.80;;;;;;5083671;28;21018;-54
2022/11/07 03:49:46;;;;;;;2.33;1.20;;;15.10;63.80;;;;;;5087470;28;20187;-53
2022/11/07 03:52:11;;;;;;;1.67;1.50;;;15.10;63.30;;;;;;5088943;28;20217;-53
2022/11/07 03:54:37;;;;;;;2.10;1.17;;;15.20;63.70;;;;;;5091859;28;20194;-54
2022/11/07 03:57:03;;;;;;;1.70;1.40;;;15.20;63.60;;;;;;5089446;28;20187;-52
2022/11/07 03:59:28;;;;;;;1.73;1.40;;;15.40;63.50;;;;;;5092020;28;20646;-52
2022/11/07 04:01:54;;;;;;;1.50;1.40;;;15.60;62.60;;;;;;5088211;28;20214;-53
2022/11/07 04:04:19;;;;;;;4.70;1.23;;;15.70;62.30;;;;;;5089986;28;20227;-52
2022/11/07 04:06:45;;;;;;;1.30;1.13;;;15.90;61.40;;;;;;5088147;28;20872;-53
2022/11/07 04:09:10;;;;;;;2.10;1.10;;;16.10;61.20;;;;;;5105407;28;20197;-51
2022/11/07 04:17:18;;;;;;;1.50;1.40;;;16.10;60.60;;;;;;5089476;28;20862;-49
2022/11/07 04:19:44;;;;;;;1.20;1.10;;;16.20;60.40;;;;;;5092050;28;20544;-52
2022/11/07 04:22:10;;;;;;;1.67;1.40;;;16.30;60.60;;;;;;5086149;28;20498;-49
2022/11/07 04:24:35;;;;;;;1.60;1.50;;;16.30;59.90;;;;;;5085726;28;20477;-50
2022/11/07 04:29:45;;;;;;;2.07;1.30;;;16.40;59.60;;;;;;5088285;28;20276;-53
2022/11/07 04:32:11;;;;;;;1.20;1.10;;;16.40;59.60;;;;;;5089766;28;20441;-51
2022/11/07 04:34:36;;;;;;;1.43;1.33;;;16.50;59.40;;;;;;5090929;28;20199;-54
2022/11/07 04:37:02;;;;;;;2.03;1.10;;;16.50;59.20;;;;;;5089397;28;20191;-50
2022/11/07 04:39:27;;;;;;;1.30;1.20;;;16.60;59.20;;;;;;5087316;28;20190;-52
2022/11/07 04:41:55;;;;;;;2.40;1.53;;;16.50;59.00;;;;;;5077311;28;20191;-50
2022/11/07 04:44:21;;;;;;;2.27;1.60;;;16.50;59.20;;;;;;5087575;28;20198;-53
2022/11/07 04:46:46;;;;;;;1.33;1.23;;;16.60;59.10;;;;;;5089883;28;20510;-50
2022/11/07 04:49:14;;;;;;;3.57;1.43;;;16.60;59.00;;;;;;5092115;28;20433;-53
2022/11/07 04:51:43;;;;;;;4.20;1.93;;;16.70;58.90;;;;;;5092460;28;20198;-50
2022/11/07 04:54:13;;;;;;;2.73;1.27;;;16.50;59.10;;;;;;5086145;28;20525;-51
2022/11/07 04:56:39;;;;;;;2.87;1.43;;;16.40;59.30;;;;;;5083599;28;20445;-51
2022/11/07 04:59:04;;;;;;;4.93;1.60;;;16.40;59.40;;;;;;5087436;28;20456;-50
2022/11/07 05:01:30;;;;;;;3.60;1.30;;;16.30;59.40;;;;;;5087705;28;20931;-51
2022/11/07 05:03:56;;;;;;;1.70;1.20;;;16.30;59.20;;;;;;5089190;28;20198;-50
2022/11/07 05:06:22;;;;;;;1.53;1.43;;;16.20;59.50;;;;;;5090908;28;20222;-49
2022/11/07 05:08:48;;;;;;;2.80;1.67;;;16.00;59.70;;;;;;5098249;28;20199;-53
2022/11/07 05:11:14;;;;;;;1.50;1.40;;;15.70;60.50;;;;;;5091136;28;20449;-49
2022/11/07 05:13:39;;;;;;;2.90;1.50;;;15.70;60.60;;;;;;5081496;28;21146;-51
2022/11/07 05:16:10;;;;;;;2.30;1.70;;;15.70;61.10;;;;;;5090148;28;20190;-49
2022/11/07 05:18:36;;;;;;;2.23;1.37;;;15.70;60.70;;;;;;5088757;28;20283;-51
2022/11/07 05:21:01;;;;;;;3.27;1.43;;;15.80;60.60;;;;;;5091802;28;20612;-51
2022/11/07 05:23:27;;;;;;;3.23;1.50;;;15.70;60.50;;;;;;5092627;28;20191;-50
2022/11/07 05:25:53;;;;;;;2.43;1.43;;;15.80;61.40;;;;;;5087297;28;20245;-51
2022/11/07 05:28:27;;;;;;;1.17;1.03;;;15.90;60.40;;;;;;5081638;28;20214;-51
2022/11/07 05:30:56;;;;;;;1.50;1.33;;;16.00;60.00;;;;;;5086523;28;20792;-52
2022/11/07 05:33:22;;;;;;;2.10;1.77;;;16.00;60.00;;;;;;5089065;28;20449;-50
2022/11/07 05:35:48;;;;;;;1.20;1.10;;;16.00;60.00;;;;;;5085842;28;20445;-50
2022/11/07 05:38:14;;;;;;;3.00;1.50;;;15.90;60.20;;;;;;5091126;28;20448;-49
2022/11/07 05:40:40;;;;;;;2.27;1.60;;;15.90;60.40;;;;;;5094103;28;20318;-49
2022/11/07 05:43:07;;;;;;;2.33;1.50;;;15.90;60.40;;;;;;5092022;28;20226;-50
2022/11/07 05:45:38;;;;;;;3.00;1.00;;;16.00;60.10;;;;;;5085566;28;20505;-50
2022/11/07 05:48:11;;;;;;;1.73;1.40;;;16.10;60.00;;;;;;5087240;28;20475;-50
2022/11/07 05:50:38;;;;;;;3.17;1.63;;;16.20;59.90;;;;;;5085747;28;20499;-50
2022/11/07 05:53:06;;;;;;;3.67;1.60;;;16.10;59.70;;;;;;5087757;28;20437;-53
2022/11/07 05:55:32;;;;;;;1.70;1.60;;;16.30;59.70;;;;;;5091506;28;20528;-50
2022/11/07 05:57:57;;;;;;;1.70;1.60;;;16.30;59.60;;;;;;5096973;28;20532;-51
2022/11/07 06:00:23;;;;;;;1.40;1.30;;;16.30;59.50;;;;;;5091335;28;20201;-54
2022/11/07 06:02:59;;;;;;;2.00;1.80;;;16.40;59.40;;;;;;5098745;28;20195;-49
2022/11/07 06:05:24;;;;;;;2.00;1.80;;;16.50;59.30;;;;;;5089796;28;20194;-50
2022/11/07 06:07:50;;;;;;;3.83;2.10;;;16.60;59.10;;;;;;5095519;28;21354;-53
2022/11/07 06:10:16;;;;;;;3.43;1.97;;;16.60;58.90;;;;;;5102257;28;20187;-50
2022/11/07 06:12:41;;;;;;;4.70;1.93;;;16.50;58.90;;;;;;5090694;28;20210;-55
2022/11/07 06:15:07;;;;;;;3.77;1.80;;;16.50;59.30;;;;;;5089626;28;20552;-54
2022/11/07 06:17:33;;;;;;;5.30;2.10;;;16.60;60.00;;;;;;5090919;28;20325;-54
2022/11/07 06:19:58;;;;;;;5.20;2.23;;;16.80;60.30;;;;;;5091027;28;20191;-54
2022/11/07 06:22:24;;;;;;;2.90;2.03;;;16.90;60.00;;;;;;5091025;28;20633;-54
2022/11/07 06:24:50;;;;;;;8.27;1.80;;;16.90;59.60;;;;;;5094876;28;20222;-54
2022/11/07 06:27:16;;;;;;;1.93;1.50;;;16.90;59.00;;;;;;5089292;28;20488;-54
2022/11/07 06:29:42;;;;;;;2.77;2.00;;;16.90;59.00;;;;;;5085889;28;20445;-55
2022/11/07 06:32:07;;;;;;;2.43;1.90;;;16.90;58.90;;;;;;5092953;28;20191;-54
2022/11/07 06:34:33;;;;;;;1.73;1.60;;;17.10;58.60;;;;;;5092692;28;20655;-54
2022/11/07 06:36:59;;;;;;;2.20;1.20;;;17.10;58.40;;;;;;5088188;28;20190;-54
2022/11/07 06:39:24;;;;;;;2.87;1.87;;;17.10;58.50;;;;;;5088895;28;20241;-55
2022/11/07 06:41:50;;;;;;;2.57;1.60;;;17.00;58.10;;;;;;5094324;28;20230;-56
2022/11/07 06:44:19;;;;;;;2.50;1.43;;;16.90;58.50;;;;;;5094305;28;20220;-55
2022/11/07 06:46:47;;;;;;;2.03;1.83;;;17.00;58.50;;;;;;5088745;28;20254;-56
2022/11/07 06:49:14;;;;;;;2.10;1.50;;;16.80;58.60;;;;;;5091385;28;20445;-55
2022/11/07 06:51:40;;;;;;;2.30;1.33;;;16.70;58.70;;;;;;5084936;28;20448;-56
2022/11/07 06:54:06;;;;;;;1.70;1.60;;;16.80;58.70;;;;;;5090530;28;20471;-53
2022/11/07 06:56:31;;;;;;;3.13;1.57;;;16.90;58.60;;;;;;5086970;28;21427;-55
2022/11/07 06:58:57;;;;;;;3.53;1.80;;;17.00;58.40;;;;;;5089608;28;20240;-56
2022/11/07 07:01:22;;;;;;;2.60;1.33;;;17.10;58.20;;;;;;5092029;28;20642;-55
2022/11/07 07:03:48;;;;;;;3.63;1.60;;;17.20;58.00;;;;;;5089722;28;20957;-56
2022/11/07 07:06:15;;;;;;;3.20;1.40;;;17.10;57.80;;;;;;5086298;28;20222;-55
2022/11/07 07:08:41;;;;;;;2.07;1.53;;;17.20;58.00;;;;;;5092320;28;20252;-55
2022/11/07 07:11:10;;;;;;;2.43;1.67;;;17.30;57.90;;;;;;5090778;28;20444;-55
2022/11/07 07:13:36;;;;;;;2.00;1.47;;;17.40;57.80;;;;;;5090790;28;20449;-55
2022/11/07 07:16:02;;;;;;;2.13;1.30;;;17.40;57.60;;;;;;5094024;28;20801;-55
2022/11/07 07:18:28;;;;;;;1.63;1.30;;;17.50;57.50;;;;;;5090822;28;20445;-54
2022/11/07 07:21:08;;;;;;;2.60;1.30;;;17.50;57.60;;;;;;5084555;28;20194;-56
2022/11/07 07:23:34;;;;;;;2.37;2.17;;;17.40;57.50;;;;;;5088911;28;20528;-55
2022/11/07 07:26:04;;;;;;;2.33;1.50;;;17.50;57.50;;;;;;5088497;28;20874;-56
2022/11/07 07:28:30;;;;;;;3.93;1.50;;;17.50;57.50;;;;;;5083273;28;20445;-56
2022/11/07 07:31:14;;;;;;;2.97;1.53;;;17.70;57.20;;;;;;5103078;28;20522;-55
2022/11/07 07:33:40;;;;;;;2.50;1.63;;;17.70;57.10;;;;;;5082429;28;20245;-55
2022/11/07 07:36:07;;;;;;;2.40;1.70;;;17.70;57.10;;;;;;5092680;28;20422;-56
2022/11/07 07:38:33;;;;;;;2.80;1.57;;;17.80;57.00;;;;;;5093840;28;20452;-56
2022/11/07 07:40:59;;;;;;;3.20;1.33;;;17.80;56.70;;;;;;5093416;28;20421;-55
2022/11/07 07:43:25;;;;;;;3.37;1.37;;;17.70;56.90;;;;;;5092728;28;20609;-56
2022/11/07 07:45:51;;;;;;;1.90;1.30;;;17.80;56.80;;;;;;5093441;28;20484;-54
2022/11/07 07:48:17;;;;;;;2.63;1.50;;;17.80;56.70;;;;;;5092839;28;21122;-56
2022/11/07 07:50:43;;;;;;;6.73;1.33;;;17.60;56.90;;;;;;5092699;28;20187;-54
2022/11/07 07:53:08;;;;;;;2.23;1.93;;;17.60;57.20;;;;;;5101274;28;20206;-55
2022/11/07 07:55:34;;;;;;;2.70;1.40;;;17.80;57.20;;;;;;5093289;28;20191;-55
2022/11/07 07:58:00;;;;;;;3.33;1.27;;;17.90;57.00;;;;;;5093206;28;20218;-57
2022/11/07 08:00:25;;;;;;;2.43;1.30;;;18.00;56.70;;;;;;5095373;28;20467;-55
2022/11/07 08:02:59;;;;;;;3.23;1.90;;;18.00;56.50;;;;;;5099756;28;20199;-55
2022/11/07 08:05:25;;;;;;;2.47;1.70;;;18.00;56.40;;;;;;5093024;28;20190;-55
2022/11/07 08:07:51;;;;;;;1.97;1.47;;;18.00;56.20;;;;;;5092258;28;20495;-54
2022/11/07 08:10:18;;;;;;;2.43;1.33;;;18.00;56.30;;;;;;5092180;28;20662;-54
2022/11/07 08:12:48;;;;;;;3.73;1.63;;;18.10;56.50;;;;;;5092704;28;20659;-56
2022/11/07 08:15:15;;;;;;;1.50;1.40;;;18.10;56.50;;;;;;5092626;28;20909;-55
2022/11/07 08:17:41;;;;;;;4.70;1.60;;;18.10;56.70;;;;;;5092420;28;20506;-56
2022/11/07 08:20:13;;;;;;;7.50;1.90;;;18.20;56.70;;;;;;5102090;28;20440;-56
2022/11/07 08:22:39;;;;;;;2.67;1.43;;;18.30;56.60;;;;;;5092323;28;20437;-53
2022/11/07 08:25:07;;;;;;;5.47;1.63;;;18.20;56.60;;;;;;5090615;28;21125;-55
2022/11/07 08:27:33;;;;;;;2.50;1.60;;;18.30;56.70;;;;;;5091982;28;20480;-56
2022/11/07 08:29:59;;;;;;;2.10;1.37;;;18.30;56.60;;;;;;5090115;28;20445;-55
2022/11/07 08:32:28;;;;;;;2.00;1.57;;;18.20;56.60;;;;;;5092030;28;20187;-55
2022/11/07 08:34:54;;;;;;;3.43;1.50;;;18.20;56.50;;;;;;5092069;28;20478;-55
2022/11/07 08:37:19;;;;;;;2.70;1.57;;;18.20;56.70;;;;;;5092479;28;20524;-56
2022/11/07 08:39:45;;;;;;;2.50;1.47;;;18.30;56.60;;;;;;5091172;28;20201;-55
2022/11/07 08:42:11;;;;;;;5.50;2.63;;;18.30;56.40;;;;;;5091891;28;20310;-55
2022/11/07 08:44:37;;;;;;;1.80;1.27;;;18.30;56.30;;;;;;5091996;28;20187;-55
2022/11/07 08:47:03;;;;;;;4.60;2.13;;;18.30;56.30;;;;;;5092230;28;20302;-56
2022/11/07 08:49:28;;;;;;;4.13;1.50;;;18.30;56.10;;;;;;5090855;28;20191;-56
2022/11/07 08:51:54;;;;;;;1.60;1.17;;;18.30;56.20;;;;;;5099821;28;20769;-57
2022/11/07 08:54:20;;;;;;;3.33;1.53;;;18.20;56.00;;;;;;5091717;28;20183;-55
2022/11/07 08:56:46;;;;;;;4.30;1.70;;;18.10;56.40;;;;;;5089372;28;20269;-58
2022/11/07 08:59:12;;;;;;;5.23;1.73;;;18.20;56.40;;;;;;5082123;28;20195;-55
2022/11/07 09:01:38;;;;;;;3.67;1.70;;;18.30;56.40;;;;;;5083268;28;20935;-54
2022/11/07 09:04:04;;;;;;;4.93;1.50;;;18.30;56.20;;;;;;5085698;28;20482;-54
2022/11/07 09:06:31;;;;;;;1.57;1.33;;;18.30;56.10;;;;;;5090094;28;20677;-54
2022/11/07 09:08:57;;;;;;;4.67;2.00;;;18.40;56.10;;;;;;5090631;28;20536;-55
2022/11/07 09:11:23;;;;;;;3.87;1.40;;;18.40;56.10;;;;;;5087143;28;20444;-54
2022/11/07 09:13:50;;;;;;;2.10;1.90;;;18.50;55.90;;;;;;5086447;28;20936;-54
2022/11/07 09:16:16;;;;;;;5.60;1.50;;;18.60;55.80;;;;;;5088658;28;20465;-55
2022/11/07 09:18:43;;;;;;;3.67;1.90;;;18.60;55.60;;;;;;5087247;28;20474;-54
2022/11/07 09:21:09;;;;;;;4.37;1.43;;;18.70;55.50;;;;;;5086477;28;20199;-54
2022/11/07 09:23:34;;;;;;;1.43;1.00;;;18.50;55.00;;;;;;5088525;28;20810;-55
2022/11/07 09:26:00;;;;;;;4.97;2.20;;;18.40;55.30;;;;;;5087402;28;20219;-55
2022/11/07 09:28:26;;;;;;;3.10;1.90;;;18.40;55.40;;;;;;5086851;28;20202;-54
2022/11/07 09:30:53;;;;;;;2.90;1.70;;;18.50;55.50;;;;;;5085679;28;20638;-54
2022/11/07 09:33:19;;;;;;;6.03;1.70;;;18.50;55.50;;;;;;5085350;28;20242;-54
2022/11/07 09:35:44;;;;;;;6.40;1.83;;;18.60;55.30;;;;;;5089068;28;20851;-54
2022/11/07 09:38:10;;;;;;;1.93;1.73;;;18.70;55.20;;;;;;5086376;28;20187;-55
2022/11/07 09:41:25;;;;;;;4.63;1.53;;;18.70;55.20;;;;;;5091614;28;20193;-55
2022/11/07 09:44:15;;;;;;;2.83;1.60;;;18.80;55.10;;;;;;5068761;28;20210;-54
2022/11/07 09:47:02;;;;;;;5.57;2.13;;;18.80;55.10;;;;;;5088937;28;20488;-54
2022/11/07 09:49:36;;;;;;;2.50;1.73;;;18.80;55.10;;;;;;5090587;28;20440;-55
2022/11/07 09:52:12;;;;;;;4.70;2.23;;;18.90;55.10;;;;;;5081572;28;20445;-55
2022/11/07 09:54:44;;;;;;;6.53;1.97;;;18.80;54.60;;;;;;5085084;28;20440;-53
2022/11/07 09:57:15;;;;;;;4.60;2.40;;;18.50;54.60;;;;;;5091781;28;20532;-54
2022/11/07 09:59:43;;;;;;;6.10;1.90;;;18.40;55.40;;;;;;5083907;28;20457;-54
2022/11/07 10:02:13;;;;;;;2.77;1.90;;;18.50;55.40;;;;;;5088015;28;20437;-54
2022/11/07 10:04:39;;;;;;;5.03;1.70;;;18.70;55.30;;;;;;5089276;28;20445;-54
2022/11/07 10:07:21;;;;;;;4.77;1.70;;;18.80;55.40;;;;;;5088364;28;20517;-54
2022/11/07 10:10:26;;;;;;;2.87;1.37;;;18.90;55.10;;;;;;5084481;28;20187;-54
2022/11/07 10:13:16;;;;;;;3.77;1.93;;;18.90;54.50;;;;;;5081341;28;20444;-54
2022/11/07 10:15:49;;;;;;;2.00;1.60;;;18.90;54.50;;;;;;5088529;28;20457;-54
2022/11/07 10:18:41;;;;;;;5.70;1.70;;;18.90;54.80;;;;;;5084357;28;20503;-55
2022/11/07 10:21:52;;;;;;;7.00;1.93;;;19.00;54.80;;;;;;5076622;28;20453;-55
2022/11/07 10:24:50;;;;;;;3.83;2.10;;;19.10;54.60;;;;;;5077128;28;20484;-55
2022/11/07 10:27:16;;;;;;;3.47;2.17;;;19.10;54.50;;;;;;5087651;28;20524;-55
2022/11/07 10:29:53;;;;;;;4.33;1.70;;;19.10;54.60;;;;;;5086586;28;20457;-54
2022/11/07 10:32:34;;;;;;;3.07;1.93;;;19.20;54.40;;;;;;5085395;28;20878;-54
2022/11/07 10:35:11;;;;;;;2.90;1.80;;;19.20;54.20;;;;;;5077720;28;20448;-55
2022/11/07 10:37:37;;;;;;;3.37;1.77;;;19.00;54.00;;;;;;5080764;28;20448;-53
2022/11/07 10:40:32;;;;;;;6.33;3.57;;;19.00;54.40;;;;;;5086696;28;20449;-56
2022/11/07 10:42:59;;;;;;;3.80;1.70;;;19.00;54.50;;;;;;5086604;28;20296;-55
2022/11/07 10:45:27;;;;;;;2.80;1.40;;;19.10;54.30;;;;;;5086040;28;20475;-56
2022/11/07 10:47:57;;;;;;;5.30;2.17;;;19.20;54.30;;;;;;5088945;28;20927;-54
2022/11/07 10:50:24;;;;;;;2.70;1.87;;;19.20;54.30;;;;;;5089342;28;20822;-51
2022/11/07 10:53:04;;;;;;;6.23;1.93;;;19.10;54.30;;;;;;5085859;28;20545;-50
2022/11/07 10:55:40;;;;;;;3.40;1.30;;;19.20;54.00;;;;;;5088329;28;20507;-54
2022/11/07 10:58:06;;;;;;;1.60;1.43;;;19.20;53.30;;;;;;5089620;28;20474;-56
2022/11/07 11:00:35;;;;;;;1.50;1.30;;;19.30;53.20;;;;;;5091561;28;20445;-54
2022/11/07 11:03:01;;;;;;;2.63;1.83;;;19.20;53.40;;;;;;5096997;28;20602;-54
2022/11/07 11:05:39;;;;;;;3.60;1.63;;;19.10;52.80;;;;;;5098423;28;20460;-53
2022/11/07 11:08:14;;;;;;;4.00;1.73;;;19.00;53.00;;;;;;5092968;28;20260;-53
2022/11/07 11:10:40;;;;;;;5.97;1.70;;;19.10;52.50;;;;;;5091627;28;20440;-52
2022/11/07 11:13:06;;;;;;;4.87;1.90;;;19.30;52.50;;;;;;5089554;28;20437;-52
2022/11/07 11:15:41;;;;;;;3.70;1.57;;;19.40;52.20;;;;;;5089026;28;20270;-54
2022/11/07 11:18:15;;;;;;;5.60;1.70;;;19.50;52.80;;;;;;5090364;28;20223;-54
2022/11/07 11:21:01;;;;;;;5.20;1.70;;;19.60;52.40;;;;;;5090180;28;20801;-50
2022/11/07 11:23:30;;;;;;;3.43;1.60;;;19.60;52.50;;;;;;5082990;28;21227;-53
2022/11/07 11:26:12;;;;;;;5.57;1.53;;;19.70;52.10;;;;;;5088271;28;20479;-54
2022/11/07 11:28:42;;;;;;;3.03;1.50;;;19.80;52.20;;;;;;5085441;28;22161;-52
2022/11/07 11:31:24;;;;;;;4.60;1.50;;;19.90;52.10;;;;;;5091752;28;20526;-52
2022/11/07 11:34:09;;;;;;;3.27;1.47;;;20.10;52.20;;;;;;5088019;28;20461;-52
2022/11/07 11:36:40;;;;;;;4.10;1.40;;;20.20;51.80;;;;;;5081472;28;20449;-53
2022/11/07 11:39:25;;;;;;;5.03;2.03;;;20.10;51.70;;;;;;5089380;28;20433;-54
2022/11/07 11:41:54;;;;;;;4.60;2.43;;;20.10;51.20;;;;;;5082382;28;21230;-54
2022/11/07 11:44:44;;;;;;;5.67;1.53;;;20.10;51.30;;;;;;5082965;28;20450;-56
2022/11/07 11:47:20;;;;;;;4.83;1.50;;;20.10;51.90;;;;;;5080557;28;20523;-51
2022/11/07 11:49:57;;;;;;;1.70;1.40;;;20.10;51.70;;;;;;5090644;28;20439;-49
2022/11/07 11:52:24;;;;;;;3.00;1.43;;;20.10;51.40;;;;;;5085876;28;20472;-49
2022/11/07 11:54:51;;;;;;;3.37;1.30;;;20.00;51.30;;;;;;5090933;28;20499;-48
2022/11/07 11:57:39;;;;;;;4.03;1.63;;;19.70;51.40;;;;;;5090140;28;20444;-48
2022/11/07 12:00:18;;;;;;;3.27;1.33;;;19.50;52.30;;;;;;5089422;28;20509;-48
2022/11/07 12:03:05;;;;;;;4.30;1.93;;;19.60;52.40;;;;;;5087913;28;20991;-49
2022/11/07 12:06:05;;;;;;;4.37;1.70;;;19.80;52.10;;;;;;5089504;28;20444;-48
2022/11/07 12:08:50;;;;;;;1.70;1.30;;;19.80;52.00;;;;;;5086823;28;22068;-51
2022/11/07 12:11:36;;;;;;;3.30;1.80;;;19.80;51.60;;;;;;5088099;28;20448;-48
2022/11/07 12:14:15;;;;;;;2.77;1.63;;;19.60;51.90;;;;;;5088770;28;20457;-49
2022/11/07 12:17:09;;;;;;;2.00;1.10;;;19.50;51.80;;;;;;5086799;28;20793;-54
2022/11/07 12:20:07;;;;;;;2.17;1.50;;;19.40;53.00;;;;;;5087352;28;20523;-50
2022/11/07 12:23:05;;;;;;;4.17;0.97;;;19.00;53.10;;;;;;5082217;28;20459;-49
2022/11/07 12:25:54;;;;;;;4.27;1.17;;;19.10;52.40;;;;;;5088409;28;20484;-49
2022/11/07 12:28:44;;;;;;;1.87;1.23;;;19.10;52.60;;;;;;5089328;28;20459;-48
2022/11/07 12:31:12;;;;;;;2.90;1.30;;;19.30;52.50;;;;;;5084729;28;22528;-49
2022/11/07 12:34:12;;;;;;;4.20;1.30;;;19.40;52.30;;;;;;5091320;28;20537;-50
2022/11/07 12:36:56;;;;;;;2.73;1.30;;;19.50;51.50;;;;;;5091679;28;20468;-48
2022/11/07 12:39:29;;;;;;;1.40;0.97;;;19.40;51.80;;;;;;5087590;28;20448;-49
2022/11/07 12:42:21;;;;;;;3.50;1.03;;;19.40;51.60;;;;;;5089600;28;20449;-48
2022/11/07 12:44:59;;;;;;;1.63;1.27;;;19.60;51.90;;;;;;5089062;28;20511;-49
2022/11/07 12:48:06;;;;;;;1.70;1.00;;;19.50;51.10;;;;;;5088301;28;20500;-48
2022/11/07 12:50:52;;;;;;;4.00;1.33;;;19.40;51.10;;;;;;5085723;28;20950;-52
2022/11/07 12:53:36;;;;;;;1.90;1.23;;;19.40;51.20;;;;;;5092613;28;20494;-48
2022/11/07 12:56:09;;;;;;;4.63;1.53;;;19.50;51.40;;;;;;5079584;28;20455;-49
2022/11/07 12:58:37;;;;;;;3.00;1.20;;;19.60;51.10;;;;;;5087774;28;22174;-49
2022/11/07 13:01:03;;;;;;;7.90;2.00;;;19.70;51.00;;;;;;5091099;28;21100;-48
2022/11/07 13:03:29;;;;;;;4.67;1.37;;;19.80;51.00;;;;;;5091552;28;20453;-49
2022/11/07 13:06:00;;;;;;;4.03;1.20;;;19.80;50.80;;;;;;5075275;28;21449;-49
2022/11/07 13:08:51;;;;;;;3.80;1.47;;;19.90;50.90;;;;;;5083720;28;20248;-51
2022/11/07 13:11:36;;;;;;;3.50;1.40;;;20.00;50.60;;;;;;5088280;28;20445;-51
2022/11/07 13:14:18;;;;;;;2.00;1.30;;;20.10;50.60;;;;;;5084285;28;20494;-50